Main page
METAR-TAF:

METAR-TAF

Airports :

Robert S. Kerr Airport

Poteau, Oklahoma, United States

latitude: 35-01-18N, longitude: 094-37-17W, elevation: 453 ft

Current weather observation

The report was made 23 minutes ago, at 05:15 UTC
Calm wind
Temperature 79°F
Humidity 79%
Pressure 30.18 in. Hg
Visibility: 10 miles
Clear sky

METAR: KRKR 200515Z AUTO 00000KT 10SM CLR 26/22 A3018 RMK AO2

Time: 00:38 (05:38 UTC)


TAF: missing

Weather observations and forecasts of more than 4000 airports (METAR and TAF reports).

The available stations are represented by yellow and red dots on the map.

Hover mouse over dot to see the name of the station.

Then click to see weather observations and forecasts.

To change the map : click on the green buttons with a black cross to zoom in, on the green button with a dash to zoom out, or on the green arrows for adjacent maps.


METAR-TAF: